Boise, ID

4:11 PM MST on February 20, 2017 (GMT -0700)
Sunset | | Change Station

Elev 2777 ft 43.62 °N, 116.20 °W | Updated 55 seconds ago

Overcast
Overcast
54.2 °F
Feels Like 54.2 °F
N
0.0
Wind Variable Wind from SW

Today
High -- | Low -- °F
--% Chance of Precip.
Yesterday
High -- | Low -- °F
Precip. -- in
Pressure 29.77 in
Visibility 10.0 miles
Clouds Scattered Clouds 6000 ft
Overcast 8000 ft
Dew Point 42 °F
Humidity 63%
Rainfall 0.00 in
Snow Depth Not available.
7:35 AM 6:22 PM
Waning Crescent, 30% visible
METAR KBOI 202253Z AUTO 28006KT 10SM SCT060 OVC080 13/04 A2979 RMK AO2 SLP081 T01280039
Pressure 29.77 in
Visibility 10.0 miles
Clouds Scattered Clouds 6000 ft
Overcast 8000 ft
Dew Point 42 °F
Humidity 63%
Rainfall 0.00 in
Snow Depth Not available.
7:35 AM 6:22 PM
Waning Crescent, 30% visible
METAR KBOI 202253Z AUTO 28006KT 10SM SCT060 OVC080 13/04 A2979 RMK AO2 SLP081 T01280039

Get Your Daily Forecast Email!

Thanks for signing up!

Be on the lookout for a verification email in your inbox.

You'll start receiving the daily forecast at 8 AM.

×

10-Day Weather Forecast

Almanac

Astronomy

Feb. 20, 2017 Rise Set
Actual Time
Civil Twilight
Nautical Twilight
Astronomical Twilight
Moon
Length of Visible Light
Length of Day
Tomorrow will be .
, % of the Moon is Illuminated

Today's Extremes

State Highs State Lows

Community

WunderPhotos

Upload Photos

1,962,540 photos uploaded!

WunderBlog® & News

Nearby

Air Quality

  Air Quality AQ Index Pollutant
Not available.

Snow Depth

Station Depth Elevation

Earthquake Activity

City Distance Mag. Time & Date
Minimum magnitude displayed is 2.5.

Coastal Water Temperatures

Place Temperature

Stations

Nearby Weather Stations

Station Location Temp. Windchill Dew Point Humidity Wind Precip. Elev Updated Type
                   

Watches & Warnings

There are currently no watches in effect.